createdAt,value
2023-02-15T00:03:18.675Z,25.20
2023-02-15T00:06:51.046Z,25.63
2023-02-15T00:10:24.592Z,26.73
2023-02-15T00:13:56.307Z,27.00
2023-02-15T00:17:29.594Z,26.67
2023-02-15T00:21:06.802Z,26.50
2023-02-15T00:24:38.910Z,26.27
2023-02-15T00:28:11.053Z,27.55
2023-02-15T00:31:43.540Z,25.90
2023-02-15T00:35:15.740Z,27.07
2023-02-15T00:38:47.541Z,24.20
2023-02-15T00:42:19.598Z,26.88
2023-02-15T00:45:51.980Z,27.10
2023-02-15T00:49:24.153Z,27.77
2023-02-15T00:52:55.914Z,28.10
2023-02-15T00:56:29.501Z,27.27
2023-02-15T01:00:01.300Z,27.63
2023-02-15T01:03:33.946Z,27.45
2023-02-15T01:07:05.736Z,28.73
2023-02-15T01:10:37.875Z,29.80
2023-02-15T01:14:09.691Z,28.95
2023-02-15T01:17:41.746Z,30.92
2023-02-15T01:21:15.868Z,29.90
2023-02-15T01:24:50.324Z,28.40
2023-02-15T01:28:22.356Z,27.85
2023-02-15T01:31:54.233Z,28.48
2023-02-15T01:35:26.432Z,26.13
2023-02-15T01:38:58.210Z,28.70
2023-02-15T01:42:31.032Z,26.17
2023-02-15T01:46:03.395Z,26.37
2023-02-15T01:49:35.914Z,25.70
2023-02-15T01:53:16.756Z,26.50
2023-02-15T01:56:49.595Z,27.10
2023-02-15T02:00:22.768Z,25.23
2023-02-15T02:04:19.880Z,27.48
2023-02-15T02:07:53.579Z,25.38
2023-02-15T02:11:26.033Z,25.73
2023-02-15T02:14:58.085Z,25.95
2023-02-15T02:18:55.540Z,26.40
2023-02-15T02:22:50.281Z,27.53
2023-02-15T02:26:31.167Z,28.40
2023-02-15T02:30:28.132Z,27.27
2023-02-15T02:34:15.345Z,27.70
2023-02-15T02:38:02.314Z,27.40
2023-02-15T02:41:48.713Z,27.95
2023-02-15T02:45:43.409Z,28.38
2023-02-15T02:49:15.582Z,25.57
2023-02-15T02:52:50.040Z,29.25
2023-02-15T02:56:25.114Z,28.77
2023-02-15T03:00:00.330Z,28.43
2023-02-15T03:03:39.922Z,27.08
2023-02-15T03:07:15.861Z,26.38
2023-02-15T03:10:49.313Z,26.27
2023-02-15T03:14:21.308Z,27.10
2023-02-15T03:17:58.665Z,25.92
2023-02-15T03:21:50.635Z,26.75
2023-02-15T03:25:32.100Z,27.67
2023-02-15T03:29:06.079Z,28.38
2023-02-15T03:32:39.758Z,29.67
2023-02-15T03:36:33.078Z,29.47
2023-02-15T03:40:38.880Z,30.30
2023-02-15T03:44:24.847Z,30.80
2023-02-15T03:48:00.489Z,31.52
2023-02-15T03:51:37.368Z,32.70
2023-02-15T03:55:09.740Z,31.67
2023-02-15T03:59:00.101Z,30.13
2023-02-15T04:02:43.210Z,25.93
2023-02-15T04:06:15.152Z,28.50
2023-02-15T04:10:06.116Z,26.10
2023-02-15T04:13:38.011Z,28.60
2023-02-15T04:17:10.668Z,28.13
2023-02-15T04:21:04.529Z,28.27
2023-02-15T04:24:54.952Z,28.33
2023-02-15T04:28:26.701Z,27.63
2023-02-15T04:32:01.113Z,27.17
2023-02-15T04:35:34.524Z,26.50
2023-02-15T04:39:07.036Z,26.97
2023-02-15T04:42:39.321Z,26.70
2023-02-15T04:46:11.363Z,27.90
2023-02-15T04:49:43.116Z,27.57
2023-02-15T04:53:17.617Z,25.10
2023-02-15T04:56:49.476Z,25.42
2023-02-15T05:00:21.529Z,25.23
2023-02-15T05:03:53.329Z,27.17
2023-02-15T05:07:25.523Z,25.42
2023-02-15T05:10:58.163Z,25.98
2023-02-15T05:14:30.356Z,25.10
2023-02-15T05:18:02.528Z,26.02
2023-02-15T05:21:35.063Z,24.60
2023-02-15T05:25:25.423Z,25.03
2023-02-15T05:28:57.710Z,22.50
2023-02-15T05:32:29.839Z,20.90
2023-02-15T05:36:03.832Z,22.67
2023-02-15T05:39:36.285Z,21.93
2023-02-15T05:43:08.693Z,23.67
2023-02-15T05:46:40.561Z,20.17
2023-02-15T05:50:12.834Z,19.23
2023-02-15T05:53:44.707Z,21.58
2023-02-15T05:57:16.863Z,23.23
2023-02-15T06:00:48.938Z,25.00
2023-02-15T06:04:21.730Z,25.05
2023-02-15T06:07:53.460Z,25.38
2023-02-15T06:11:25.632Z,23.08
2023-02-15T06:14:57.393Z,23.03
2023-02-15T06:18:29.424Z,23.75
2023-02-15T06:22:04.168Z,23.02
2023-02-15T06:25:38.046Z,21.37
2023-02-15T06:29:10.892Z,22.67
2023-02-15T06:32:43.394Z,20.50
2023-02-15T06:36:15.235Z,22.03
2023-02-15T06:39:47.269Z,21.95
2023-02-15T06:43:19.052Z,19.38
2023-02-15T06:46:51.138Z,20.55
2023-02-15T06:50:22.895Z,22.03
2023-02-15T06:53:55.084Z,23.02
2023-02-15T06:57:26.854Z,21.73
2023-02-15T07:00:58.899Z,23.20
2023-02-15T07:04:31.133Z,20.77
2023-02-15T07:08:03.896Z,21.65
2023-02-15T07:11:54.737Z,22.03
2023-02-15T07:15:26.847Z,22.73
2023-02-15T07:18:59.034Z,20.83
2023-02-15T07:22:30.862Z,22.77
2023-02-15T07:26:03.538Z,22.40
2023-02-15T07:29:38.573Z,23.98
2023-02-15T07:33:25.720Z,24.67
2023-02-15T07:36:58.057Z,24.03
2023-02-15T07:40:30.532Z,24.85
2023-02-15T07:44:03.124Z,23.58
2023-02-15T07:47:35.056Z,24.10
2023-02-15T07:51:10.796Z,24.35
2023-02-15T07:54:42.650Z,23.98
2023-02-15T07:58:14.852Z,23.83
2023-02-15T08:01:46.611Z,24.13
2023-02-15T08:05:19.321Z,23.75
2023-02-15T08:08:54.085Z,24.00
2023-02-15T08:12:29.220Z,22.63
2023-02-15T08:16:01.520Z,26.33
2023-02-15T08:19:35.496Z,26.00
2023-02-15T08:23:07.628Z,25.03
2023-02-15T08:26:42.219Z,24.77
2023-02-15T08:30:15.407Z,27.52
2023-02-15T08:33:49.278Z,25.98
2023-02-15T08:37:21.147Z,25.20
2023-02-15T08:40:53.201Z,28.50
2023-02-15T08:44:25.635Z,28.83
2023-02-15T08:47:58.078Z,25.33
2023-02-15T08:51:33.459Z,26.85
2023-02-15T08:55:05.810Z,25.95
2023-02-15T08:58:38.609Z,25.23
2023-02-15T09:02:11.659Z,25.88
2023-02-15T09:05:44.200Z,25.70
2023-02-15T09:09:17.069Z,28.83
2023-02-15T09:12:51.117Z,25.43
2023-02-15T09:16:25.347Z,24.45
2023-02-15T09:19:58.037Z,24.40
2023-02-15T09:23:30.066Z,24.87
2023-02-15T09:27:01.850Z,24.45
2023-02-15T09:30:34.662Z,24.73
2023-02-15T09:34:06.580Z,23.80
2023-02-15T09:37:38.583Z,23.08
2023-02-15T09:41:40.331Z,20.60
2023-02-15T09:45:16.234Z,20.05
2023-02-15T09:48:58.060Z,17.70
2023-02-15T09:52:51.054Z,16.88
2023-02-15T09:56:31.937Z,17.55
2023-02-15T10:00:29.989Z,16.13
2023-02-15T10:04:43.122Z,13.68
2023-02-15T10:08:15.145Z,16.02
2023-02-15T10:12:08.635Z,18.67
2023-02-15T10:15:52.946Z,16.85
2023-02-15T10:19:59.825Z,19.15
2023-02-15T10:24:01.210Z,17.08
2023-02-15T10:27:40.634Z,16.57
2023-02-15T10:31:28.548Z,15.07
2023-02-15T10:35:21.308Z,19.70
2023-02-15T10:38:53.019Z,17.57
2023-02-15T10:42:43.624Z,18.17
2023-02-15T10:46:31.044Z,14.10
2023-02-15T10:50:22.224Z,18.40
2023-02-15T10:54:19.381Z,15.95
2023-02-15T10:58:13.150Z,16.95
2023-02-15T11:02:00.784Z,18.80
2023-02-15T11:05:35.765Z,17.67
2023-02-15T11:09:14.192Z,15.23
2023-02-15T11:12:47.698Z,16.63
2023-02-15T11:16:26.739Z,14.43
2023-02-15T11:20:08.880Z,16.88
2023-02-15T11:23:45.671Z,16.73
2023-02-15T11:27:18.248Z,18.80
2023-02-15T11:30:55.667Z,16.02
2023-02-15T11:34:34.531Z,16.30
2023-02-15T11:38:29.823Z,14.55
2023-02-15T11:42:10.842Z,16.53
2023-02-15T11:45:45.703Z,16.20
2023-02-15T11:49:26.029Z,17.23
2023-02-15T11:53:01.940Z,17.23
2023-02-15T11:56:35.861Z,16.75
2023-02-15T12:00:38.608Z,18.13
2023-02-15T12:04:22.999Z,17.60
2023-02-15T12:08:02.273Z,17.83
2023-02-15T12:11:39.715Z,18.48
2023-02-15T12:15:13.539Z,18.35
2023-02-15T12:18:47.931Z,17.70
2023-02-15T12:22:26.722Z,18.90
2023-02-15T12:26:02.847Z,18.48
2023-02-15T12:29:44.169Z,18.00
2023-02-15T12:33:35.561Z,16.92
2023-02-15T12:37:18.186Z,18.42
2023-02-15T12:41:26.420Z,19.33
2023-02-15T12:45:20.170Z,18.60
2023-02-15T12:49:21.267Z,18.50
2023-02-15T12:53:20.200Z,18.35
2023-02-15T12:56:52.793Z,18.93
2023-02-15T13:00:32.714Z,16.57
2023-02-15T13:04:07.304Z,17.75
2023-02-15T13:07:39.232Z,19.13
2023-02-15T13:11:12.927Z,18.20
2023-02-15T13:14:47.137Z,18.85
2023-02-15T13:18:32.447Z,18.17
2023-02-15T13:22:10.015Z,17.98
2023-02-15T13:25:51.253Z,17.07
2023-02-15T13:29:29.147Z,17.15
2023-02-15T13:33:06.810Z,18.40
2023-02-15T13:37:17.542Z,18.50
2023-02-15T13:40:56.375Z,17.70
2023-02-15T13:45:08.803Z,19.15
2023-02-15T13:49:19.937Z,17.52
2023-02-15T13:53:16.825Z,17.83
2023-02-15T13:57:07.674Z,20.85
2023-02-15T14:01:18.350Z,19.50
2023-02-15T14:05:24.012Z,18.57
2023-02-15T14:08:55.939Z,18.63
2023-02-15T14:12:52.544Z,18.38
2023-02-15T14:17:07.196Z,18.33
2023-02-15T14:20:42.635Z,18.80
2023-02-15T14:24:52.298Z,20.20
2023-02-15T14:28:43.089Z,19.67
2023-02-15T14:32:26.964Z,20.35
2023-02-15T14:36:01.202Z,18.93
2023-02-15T14:40:11.496Z,19.60
2023-02-15T14:44:10.764Z,19.25
2023-02-15T14:47:49.890Z,21.70
2023-02-15T14:51:50.711Z,20.50
2023-02-15T14:55:42.994Z,19.40
2023-02-15T14:59:18.004Z,21.05
2023-02-15T15:02:52.459Z,20.17
2023-02-15T15:06:31.502Z,19.15
2023-02-15T15:10:18.619Z,22.08
2023-02-15T15:14:10.907Z,20.83
2023-02-15T15:18:05.995Z,21.00
2023-02-15T15:21:50.156Z,20.77
2023-02-15T15:25:53.092Z,21.20
2023-02-15T15:29:40.686Z,21.43
2023-02-15T15:33:30.813Z,19.75
2023-02-15T15:37:21.247Z,19.67
2023-02-15T15:41:14.807Z,20.38
2023-02-15T15:44:49.995Z,21.27
2023-02-15T15:48:29.614Z,20.50
2023-02-15T15:52:04.036Z,22.75
2023-02-15T15:55:35.825Z,22.40
2023-02-15T15:59:17.561Z,23.92
2023-02-15T16:02:53.631Z,22.35
2023-02-15T16:06:30.051Z,21.63
2023-02-15T16:10:04.231Z,21.45
2023-02-15T16:13:36.402Z,20.55
2023-02-15T16:17:18.465Z,19.08
2023-02-15T16:21:03.294Z,19.40
2023-02-15T16:24:44.040Z,19.05
2023-02-15T16:28:19.548Z,22.15
2023-02-15T16:32:21.831Z,20.30
2023-02-15T16:35:58.290Z,21.17
2023-02-15T16:39:31.476Z,22.83
2023-02-15T16:43:08.583Z,18.77
2023-02-15T16:46:47.211Z,19.85
2023-02-15T16:50:31.748Z,18.33
2023-02-15T16:54:20.695Z,18.88
2023-02-15T16:57:57.666Z,18.53
2023-02-15T17:01:32.351Z,18.63
2023-02-15T17:05:10.720Z,18.88
2023-02-15T17:08:46.109Z,16.27
2023-02-15T17:12:56.469Z,18.52
2023-02-15T17:16:32.744Z,18.13
2023-02-15T17:20:14.369Z,18.10
2023-02-15T17:23:50.437Z,18.80
2023-02-15T17:27:26.209Z,19.30
2023-02-15T17:30:59.614Z,19.70
2023-02-15T17:35:05.467Z,20.83
2023-02-15T17:38:40.570Z,20.00
2023-02-15T17:42:12.357Z,19.50
2023-02-15T17:45:54.274Z,19.80
2023-02-15T17:49:34.929Z,21.80
2023-02-15T17:53:09.851Z,20.63
2023-02-15T17:56:42.136Z,21.07
2023-02-15T18:00:33.984Z,21.05
2023-02-15T18:04:28.363Z,23.25
2023-02-15T18:08:19.144Z,25.33
2023-02-15T18:11:51.710Z,24.10
2023-02-15T18:15:24.151Z,24.83
2023-02-15T18:18:57.566Z,24.15
2023-02-15T18:22:30.051Z,22.67
2023-02-15T18:26:02.174Z,23.50
2023-02-15T18:29:34.555Z,25.50
2023-02-15T18:33:06.424Z,22.87
2023-02-15T18:36:45.464Z,24.20
2023-02-15T18:40:22.490Z,25.15
2023-02-15T18:43:55.453Z,23.92
2023-02-15T18:47:27.274Z,26.60
2023-02-15T18:50:59.462Z,27.17
2023-02-15T18:54:31.817Z,27.70
2023-02-15T18:58:03.788Z,28.87
2023-02-15T19:01:35.906Z,28.02
2023-02-15T19:05:07.898Z,28.33
2023-02-15T19:08:40.355Z,31.13
2023-02-15T19:12:13.697Z,33.85
2023-02-15T19:15:45.835Z,32.92
2023-02-15T19:19:18.061Z,31.77
2023-02-15T19:22:52.237Z,32.77
2023-02-15T19:26:30.778Z,32.28
2023-02-15T19:30:19.418Z,33.38
2023-02-15T19:33:51.388Z,33.83
2023-02-15T19:37:34.969Z,32.42
2023-02-15T19:41:18.520Z,33.60
2023-02-15T19:44:54.909Z,31.70
2023-02-15T19:48:26.812Z,34.33
2023-02-15T19:51:59.846Z,33.70
2023-02-15T19:55:35.186Z,36.25
2023-02-15T19:59:22.169Z,35.43
2023-02-15T20:02:55.886Z,36.30
2023-02-15T20:06:28.088Z,37.78
2023-02-15T20:10:02.810Z,35.27
2023-02-15T20:13:35.316Z,35.22
2023-02-15T20:17:07.288Z,36.58
2023-02-15T20:20:45.244Z,37.83
2023-02-15T20:24:20.157Z,37.40
2023-02-15T20:27:52.742Z,37.30
2023-02-15T20:31:26.017Z,40.05
2023-02-15T20:34:58.496Z,38.37
2023-02-15T20:38:32.599Z,39.40
2023-02-15T20:42:05.934Z,39.90
2023-02-15T20:45:37.908Z,38.67
2023-02-15T20:49:10.213Z,40.42
2023-02-15T20:52:42.312Z,38.20
2023-02-15T20:56:23.699Z,37.73
2023-02-15T20:59:55.505Z,39.85
2023-02-15T21:03:31.204Z,39.40
2023-02-15T21:07:03.266Z,38.50
2023-02-15T21:10:35.929Z,40.00
2023-02-15T21:14:15.481Z,42.13
2023-02-15T21:17:47.680Z,42.15
2023-02-15T21:21:24.109Z,39.50
2023-02-15T21:24:57.558Z,41.55
2023-02-15T21:28:29.871Z,41.85
2023-02-15T21:32:03.774Z,39.57
2023-02-15T21:35:37.686Z,38.95
2023-02-15T21:39:22.721Z,42.72
2023-02-15T21:43:13.792Z,37.40
2023-02-15T21:47:04.095Z,37.00
2023-02-15T21:50:55.279Z,37.10
2023-02-15T21:54:27.357Z,39.03
2023-02-15T21:58:00.221Z,33.20
2023-02-15T22:01:32.421Z,36.47
2023-02-15T22:05:12.472Z,35.33
2023-02-15T22:08:45.104Z,35.30
2023-02-15T22:12:18.675Z,35.55
2023-02-15T22:15:50.847Z,36.20
2023-02-15T22:19:23.448Z,38.38
2023-02-15T22:22:55.624Z,38.83
2023-02-15T22:26:28.080Z,41.45
2023-02-15T22:30:00.230Z,40.03
2023-02-15T22:33:34.262Z,39.27
2023-02-15T22:37:06.546Z,36.38
2023-02-15T22:40:38.610Z,37.28
2023-02-15T22:44:17.566Z,36.70
2023-02-15T22:47:52.975Z,38.70
2023-02-15T22:51:25.381Z,37.75
2023-02-15T22:54:57.134Z,38.50
2023-02-15T22:58:29.274Z,36.33
2023-02-15T23:02:03.563Z,39.92
2023-02-15T23:05:35.704Z,36.67
2023-02-15T23:09:08.113Z,36.70
2023-02-15T23:13:00.230Z,37.97
2023-02-15T23:16:32.274Z,35.85
2023-02-15T23:20:04.896Z,34.83
2023-02-15T23:23:39.789Z,34.40
2023-02-15T23:27:37.730Z,38.10
2023-02-15T23:31:21.974Z,35.60
2023-02-15T23:34:53.925Z,39.77
2023-02-15T23:38:30.707Z,35.05
2023-02-15T23:42:06.396Z,34.30
2023-02-15T23:45:39.635Z,33.33
2023-02-15T23:49:16.314Z,34.22
2023-02-15T23:52:50.449Z,27.55
2023-02-15T23:56:22.233Z,29.23
2023-02-15T23:59:54.771Z,28.05
